sensor_id;sensor_type;location;lat;lon;timestamp;temperature;humidity
59469;DHT22;45277;52.768;18.262;2022-09-09T00:01:28;12.50;99.90
59469;DHT22;45277;52.768;18.262;2022-09-09T00:03:26;12.50;99.90
59469;DHT22;45277;52.768;18.262;2022-09-09T00:10:39;12.50;99.90
59469;DHT22;45277;52.768;18.262;2022-09-09T00:12:15;12.50;99.90
59469;DHT22;45277;52.768;18.262;2022-09-09T00:13:52;12.50;99.90
59469;DHT22;45277;52.768;18.262;2022-09-09T00:15:37;12.50;99.90
59469;DHT22;45277;52.768;18.262;2022-09-09T00:17:23;12.50;99.90
59469;DHT22;45277;52.768;18.262;2022-09-09T00:20:49;12.40;99.90
59469;DHT22;45277;52.768;18.262;2022-09-09T00:22:24;12.50;99.90
59469;DHT22;45277;52.768;18.262;2022-09-09T00:23:58;12.50;99.90
59469;DHT22;45277;52.768;18.262;2022-09-09T00:25:34;12.50;99.90
59469;DHT22;45277;52.768;18.262;2022-09-09T00:27:34;12.50;99.90
59469;DHT22;45277;52.768;18.262;2022-09-09T00:30:56;12.50;99.90
59469;DHT22;45277;52.768;18.262;2022-09-09T00:32:43;12.50;99.90
59469;DHT22;45277;52.768;18.262;2022-09-09T00:34:21;12.50;99.90
59469;DHT22;45277;52.768;18.262;2022-09-09T00:35:56;12.60;99.90
59469;DHT22;45277;52.768;18.262;2022-09-09T00:37:29;12.60;99.90
59469;DHT22;45277;52.768;18.262;2022-09-09T00:39:13;12.50;99.90
59469;DHT22;45277;52.768;18.262;2022-09-09T00:44:30;12.50;99.90
59469;DHT22;45277;52.768;18.262;2022-09-09T00:47:52;12.60;99.90
59469;DHT22;45277;52.768;18.262;2022-09-09T00:49:39;12.60;99.90
59469;DHT22;45277;52.768;18.262;2022-09-09T00:51:17;12.60;99.90
59469;DHT22;45277;52.768;18.262;2022-09-09T00:56:39;12.50;99.90
59469;DHT22;45277;52.768;18.262;2022-09-09T00:58:17;12.50;99.90
59469;DHT22;45277;52.768;18.262;2022-09-09T00:59:52;12.50;99.90
59469;DHT22;45277;52.768;18.262;2022-09-09T01:01:24;12.50;99.90
59469;DHT22;45277;52.768;18.262;2022-09-09T01:03:15;12.50;99.90
59469;DHT22;45277;52.768;18.262;2022-09-09T01:04:51;12.50;99.90
59469;DHT22;45277;52.768;18.262;2022-09-09T01:06:30;12.50;99.90
59469;DHT22;45277;52.768;18.262;2022-09-09T01:08:06;12.50;99.90
59469;DHT22;45277;52.768;18.262;2022-09-09T01:09:57;12.50;99.90
59469;DHT22;45277;52.768;18.262;2022-09-09T01:13:27;12.50;99.90
59469;DHT22;45277;52.768;18.262;2022-09-09T01:15:12;12.50;99.90
59469;DHT22;45277;52.768;18.262;2022-09-09T01:16:50;12.50;99.90
59469;DHT22;45277;52.768;18.262;2022-09-09T01:18:32;12.40;99.90
59469;DHT22;45277;52.768;18.262;2022-09-09T01:21:49;12.50;99.90
59469;DHT22;45277;52.768;18.262;2022-09-09T01:25:21;12.50;99.90
59469;DHT22;45277;52.768;18.262;2022-09-09T01:27:01;12.50;99.90
59469;DHT22;45277;52.768;18.262;2022-09-09T01:28:34;12.50;99.90
59469;DHT22;45277;52.768;18.262;2022-09-09T01:30:17;12.50;99.90
59469;DHT22;45277;52.768;18.262;2022-09-09T01:31:55;12.50;99.90
59469;DHT22;45277;52.768;18.262;2022-09-09T01:33:28;12.50;99.90
59469;DHT22;45277;52.768;18.262;2022-09-09T01:35:00;12.50;99.90
59469;DHT22;45277;52.768;18.262;2022-09-09T01:36:42;12.40;99.90
59469;DHT22;45277;52.768;18.262;2022-09-09T01:38:21;12.50;99.90
59469;DHT22;45277;52.768;18.262;2022-09-09T01:39:55;12.40;99.90
59469;DHT22;45277;52.768;18.262;2022-09-09T01:41:27;12.40;99.90
59469;DHT22;45277;52.768;18.262;2022-09-09T01:43:01;12.50;99.90
59469;DHT22;45277;52.768;18.262;2022-09-09T01:44:34;12.50;99.90
59469;DHT22;45277;52.768;18.262;2022-09-09T01:46:07;12.40;99.90
59469;DHT22;45277;52.768;18.262;2022-09-09T01:47:39;12.50;99.90
59469;DHT22;45277;52.768;18.262;2022-09-09T01:49:11;12.50;99.90
59469;DHT22;45277;52.768;18.262;2022-09-09T01:50:43;12.50;99.90
59469;DHT22;45277;52.768;18.262;2022-09-09T01:52:15;12.50;99.90
59469;DHT22;45277;52.768;18.262;2022-09-09T01:53:48;12.50;99.90
59469;DHT22;45277;52.768;18.262;2022-09-09T01:55:29;12.50;99.90
59469;DHT22;45277;52.768;18.262;2022-09-09T01:57:18;12.50;99.90
59469;DHT22;45277;52.768;18.262;2022-09-09T01:59:07;12.50;99.90
59469;DHT22;45277;52.768;18.262;2022-09-09T02:00:48;12.50;99.90
59469;DHT22;45277;52.768;18.262;2022-09-09T02:04:08;12.50;99.90
59469;DHT22;45277;52.768;18.262;2022-09-09T02:07:50;12.50;99.90
59469;DHT22;45277;52.768;18.262;2022-09-09T02:09:25;12.50;99.90
59469;DHT22;45277;52.768;18.262;2022-09-09T02:12:36;12.50;99.90
59469;DHT22;45277;52.768;18.262;2022-09-09T02:14:23;12.50;99.90
59469;DHT22;45277;52.768;18.262;2022-09-09T02:16:07;12.50;99.90
59469;DHT22;45277;52.768;18.262;2022-09-09T02:17:42;12.50;99.90
59469;DHT22;45277;52.768;18.262;2022-09-09T02:19:32;12.40;99.90
59469;DHT22;45277;52.768;18.262;2022-09-09T02:21:07;12.40;99.90
59469;DHT22;45277;52.768;18.262;2022-09-09T02:22:41;12.40;99.90
59469;DHT22;45277;52.768;18.262;2022-09-09T02:24:16;12.40;99.90
59469;DHT22;45277;52.768;18.262;2022-09-09T02:25:48;12.40;99.90
59469;DHT22;45277;52.768;18.262;2022-09-09T02:27:23;12.40;99.90
59469;DHT22;45277;52.768;18.262;2022-09-09T02:28:57;12.40;99.90
59469;DHT22;45277;52.768;18.262;2022-09-09T02:30:32;12.40;99.90
59469;DHT22;45277;52.768;18.262;2022-09-09T02:32:15;12.40;99.90
59469;DHT22;45277;52.768;18.262;2022-09-09T02:33:54;12.40;99.90
59469;DHT22;45277;52.768;18.262;2022-09-09T02:35:28;12.40;99.90
59469;DHT22;45277;52.768;18.262;2022-09-09T02:37:06;12.40;99.90
59469;DHT22;45277;52.768;18.262;2022-09-09T02:38:48;12.40;99.90
59469;DHT22;45277;52.768;18.262;2022-09-09T02:40:23;12.40;99.90
59469;DHT22;45277;52.768;18.262;2022-09-09T02:42:11;12.40;99.90
59469;DHT22;45277;52.768;18.262;2022-09-09T02:43:43;12.40;99.90
59469;DHT22;45277;52.768;18.262;2022-09-09T02:45:20;12.40;99.90
59469;DHT22;45277;52.768;18.262;2022-09-09T02:48:09;12.40;99.90
59469;DHT22;45277;52.768;18.262;2022-09-09T02:51:10;12.40;99.90
59469;DHT22;45277;52.768;18.262;2022-09-09T02:52:53;12.30;99.90
59469;DHT22;45277;52.768;18.262;2022-09-09T02:54:50;12.30;99.90
59469;DHT22;45277;52.768;18.262;2022-09-09T02:56:27;12.30;99.90
59469;DHT22;45277;52.768;18.262;2022-09-09T02:58:02;12.30;99.90
59469;DHT22;45277;52.768;18.262;2022-09-09T02:59:38;12.30;99.90
59469;DHT22;45277;52.768;18.262;2022-09-09T03:01:10;12.30;99.90
59469;DHT22;45277;52.768;18.262;2022-09-09T03:02:43;12.30;99.90
59469;DHT22;45277;52.768;18.262;2022-09-09T03:04:23;12.30;99.90
59469;DHT22;45277;52.768;18.262;2022-09-09T03:05:56;12.30;99.90
59469;DHT22;45277;52.768;18.262;2022-09-09T03:07:28;12.30;99.90
59469;DHT22;45277;52.768;18.262;2022-09-09T03:09:02;12.30;99.90
59469;DHT22;45277;52.768;18.262;2022-09-09T03:10:34;12.30;99.90
59469;DHT22;45277;52.768;18.262;2022-09-09T03:12:06;12.30;99.90
59469;DHT22;45277;52.768;18.262;2022-09-09T03:13:39;12.30;99.90
59469;DHT22;45277;52.768;18.262;2022-09-09T03:15:10;12.30;99.90
59469;DHT22;45277;52.768;18.262;2022-09-09T03:16:42;12.30;99.90
59469;DHT22;45277;52.768;18.262;2022-09-09T03:18:16;12.30;99.90
59469;DHT22;45277;52.768;18.262;2022-09-09T03:19:48;12.30;99.90
59469;DHT22;45277;52.768;18.262;2022-09-09T03:21:21;12.30;99.90
59469;DHT22;45277;52.768;18.262;2022-09-09T03:22:55;12.30;99.90
59469;DHT22;45277;52.768;18.262;2022-09-09T03:24:27;12.30;99.90
59469;DHT22;45277;52.768;18.262;2022-09-09T03:26:00;12.30;99.90
59469;DHT22;45277;52.768;18.262;2022-09-09T03:27:32;12.30;99.90
59469;DHT22;45277;52.768;18.262;2022-09-09T03:29:04;12.30;99.90
59469;DHT22;45277;52.768;18.262;2022-09-09T03:30:39;12.30;99.90
59469;DHT22;45277;52.768;18.262;2022-09-09T03:32:11;12.30;99.90
59469;DHT22;45277;52.768;18.262;2022-09-09T03:33:43;12.40;99.90
59469;DHT22;45277;52.768;18.262;2022-09-09T03:35:14;12.40;99.90
59469;DHT22;45277;52.768;18.262;2022-09-09T03:36:49;12.40;99.90
59469;DHT22;45277;52.768;18.262;2022-09-09T03:38:20;12.40;99.90
59469;DHT22;45277;52.768;18.262;2022-09-09T03:39:51;12.40;99.90
59469;DHT22;45277;52.768;18.262;2022-09-09T03:41:25;12.40;99.90
59469;DHT22;45277;52.768;18.262;2022-09-09T03:42:57;12.40;99.90
59469;DHT22;45277;52.768;18.262;2022-09-09T03:44:29;12.40;99.90
59469;DHT22;45277;52.768;18.262;2022-09-09T03:46:09;12.40;99.90
59469;DHT22;45277;52.768;18.262;2022-09-09T03:47:41;12.40;99.90
59469;DHT22;45277;52.768;18.262;2022-09-09T03:49:12;12.40;99.90
59469;DHT22;45277;52.768;18.262;2022-09-09T03:50:49;12.40;99.90
59469;DHT22;45277;52.768;18.262;2022-09-09T03:52:21;12.40;99.90
59469;DHT22;45277;52.768;18.262;2022-09-09T03:53:58;12.40;99.90
59469;DHT22;45277;52.768;18.262;2022-09-09T03:55:31;12.40;99.90
59469;DHT22;45277;52.768;18.262;2022-09-09T03:57:03;12.40;99.90
59469;DHT22;45277;52.768;18.262;2022-09-09T03:58:38;12.40;99.90
59469;DHT22;45277;52.768;18.262;2022-09-09T04:00:10;12.40;99.90
59469;DHT22;45277;52.768;18.262;2022-09-09T04:01:43;12.40;99.90
59469;DHT22;45277;52.768;18.262;2022-09-09T04:03:16;12.30;99.90
59469;DHT22;45277;52.768;18.262;2022-09-09T04:04:48;12.40;99.90
59469;DHT22;45277;52.768;18.262;2022-09-09T04:06:19;12.40;99.90
59469;DHT22;45277;52.768;18.262;2022-09-09T04:07:52;12.40;99.90
59469;DHT22;45277;52.768;18.262;2022-09-09T04:09:24;12.40;99.90
59469;DHT22;45277;52.768;18.262;2022-09-09T04:10:55;12.30;99.90
59469;DHT22;45277;52.768;18.262;2022-09-09T04:12:37;12.40;99.90
59469;DHT22;45277;52.768;18.262;2022-09-09T04:14:10;12.40;99.90
59469;DHT22;45277;52.768;18.262;2022-09-09T04:15:42;12.40;99.90
59469;DHT22;45277;52.768;18.262;2022-09-09T04:17:14;12.40;99.90
59469;DHT22;45277;52.768;18.262;2022-09-09T04:18:46;12.40;99.90
59469;DHT22;45277;52.768;18.262;2022-09-09T04:20:18;12.40;99.90
59469;DHT22;45277;52.768;18.262;2022-09-09T04:21:56;12.40;99.90
59469;DHT22;45277;52.768;18.262;2022-09-09T04:23:28;12.40;99.90
59469;DHT22;45277;52.768;18.262;2022-09-09T04:25:02;12.40;99.90
59469;DHT22;45277;52.768;18.262;2022-09-09T04:26:47;12.40;99.90
59469;DHT22;45277;52.768;18.262;2022-09-09T04:28:22;12.40;99.90
59469;DHT22;45277;52.768;18.262;2022-09-09T04:29:54;12.40;99.90
59469;DHT22;45277;52.768;18.262;2022-09-09T04:31:27;12.40;99.90
59469;DHT22;45277;52.768;18.262;2022-09-09T04:32:59;12.40;99.90
59469;DHT22;45277;52.768;18.262;2022-09-09T04:34:31;12.50;99.90
59469;DHT22;45277;52.768;18.262;2022-09-09T04:36:02;12.50;99.90
59469;DHT22;45277;52.768;18.262;2022-09-09T04:37:33;12.50;99.90
59469;DHT22;45277;52.768;18.262;2022-09-09T04:39:07;12.50;99.90
59469;DHT22;45277;52.768;18.262;2022-09-09T04:40:47;12.50;99.90
59469;DHT22;45277;52.768;18.262;2022-09-09T04:42:20;12.50;99.90
59469;DHT22;45277;52.768;18.262;2022-09-09T04:43:53;12.60;99.90
59469;DHT22;45277;52.768;18.262;2022-09-09T04:45:25;12.60;99.90
59469;DHT22;45277;52.768;18.262;2022-09-09T04:46:58;12.60;99.90
59469;DHT22;45277;52.768;18.262;2022-09-09T04:48:30;12.60;99.90
59469;DHT22;45277;52.768;18.262;2022-09-09T04:50:08;12.60;99.90
59469;DHT22;45277;52.768;18.262;2022-09-09T04:51:40;12.70;99.90
59469;DHT22;45277;52.768;18.262;2022-09-09T04:53:11;12.70;99.90
59469;DHT22;45277;52.768;18.262;2022-09-09T04:54:43;12.70;99.90
59469;DHT22;45277;52.768;18.262;2022-09-09T04:56:17;12.70;99.90
59469;DHT22;45277;52.768;18.262;2022-09-09T04:57:49;12.70;99.90
59469;DHT22;45277;52.768;18.262;2022-09-09T04:59:21;12.70;99.90
59469;DHT22;45277;52.768;18.262;2022-09-09T05:00:53;12.80;99.90
59469;DHT22;45277;52.768;18.262;2022-09-09T05:02:27;12.80;99.90
59469;DHT22;45277;52.768;18.262;2022-09-09T05:04:00;12.90;99.90
59469;DHT22;45277;52.768;18.262;2022-09-09T05:05:34;12.90;99.90
59469;DHT22;45277;52.768;18.262;2022-09-09T05:07:06;12.90;99.90
59469;DHT22;45277;52.768;18.262;2022-09-09T05:08:38;13.00;99.90
59469;DHT22;45277;52.768;18.262;2022-09-09T05:10:10;13.00;99.90
59469;DHT22;45277;52.768;18.262;2022-09-09T05:11:48;13.10;99.90
59469;DHT22;45277;52.768;18.262;2022-09-09T05:13:21;13.20;99.90
59469;DHT22;45277;52.768;18.262;2022-09-09T05:14:54;13.20;99.90
59469;DHT22;45277;52.768;18.262;2022-09-09T05:16:26;13.30;99.90
59469;DHT22;45277;52.768;18.262;2022-09-09T05:18:07;13.30;99.90
59469;DHT22;45277;52.768;18.262;2022-09-09T05:19:39;13.30;99.90
59469;DHT22;45277;52.768;18.262;2022-09-09T05:21:11;13.40;99.90
59469;DHT22;45277;52.768;18.262;2022-09-09T05:22:45;13.40;99.90
59469;DHT22;45277;52.768;18.262;2022-09-09T05:24:16;13.50;99.90
59469;DHT22;45277;52.768;18.262;2022-09-09T05:26:00;13.50;99.90
59469;DHT22;45277;52.768;18.262;2022-09-09T05:27:33;13.50;99.90
59469;DHT22;45277;52.768;18.262;2022-09-09T05:29:05;13.60;99.90
59469;DHT22;45277;52.768;18.262;2022-09-09T05:30:38;13.60;99.90
59469;DHT22;45277;52.768;18.262;2022-09-09T05:32:16;13.70;99.90
59469;DHT22;45277;52.768;18.262;2022-09-09T05:33:48;13.70;99.90
59469;DHT22;45277;52.768;18.262;2022-09-09T05:35:27;13.70;99.90
59469;DHT22;45277;52.768;18.262;2022-09-09T05:37:00;13.70;99.90
59469;DHT22;45277;52.768;18.262;2022-09-09T05:38:34;13.70;99.90
59469;DHT22;45277;52.768;18.262;2022-09-09T05:40:06;13.80;99.90
59469;DHT22;45277;52.768;18.262;2022-09-09T05:41:38;13.80;99.90
59469;DHT22;45277;52.768;18.262;2022-09-09T05:43:09;13.90;99.90
59469;DHT22;45277;52.768;18.262;2022-09-09T05:44:42;13.90;99.90
59469;DHT22;45277;52.768;18.262;2022-09-09T05:46:19;13.90;99.90
59469;DHT22;45277;52.768;18.262;2022-09-09T05:47:52;14.00;99.90
59469;DHT22;45277;52.768;18.262;2022-09-09T05:49:27;14.10;99.90
59469;DHT22;45277;52.768;18.262;2022-09-09T05:50:59;14.10;99.90
59469;DHT22;45277;52.768;18.262;2022-09-09T05:52:33;14.20;99.90
59469;DHT22;45277;52.768;18.262;2022-09-09T05:54:05;14.20;99.90
59469;DHT22;45277;52.768;18.262;2022-09-09T05:55:43;14.20;99.90
59469;DHT22;45277;52.768;18.262;2022-09-09T05:57:17;14.20;99.90
59469;DHT22;45277;52.768;18.262;2022-09-09T05:58:51;14.20;99.90
59469;DHT22;45277;52.768;18.262;2022-09-09T06:00:27;14.20;99.90
59469;DHT22;45277;52.768;18.262;2022-09-09T06:01:58;14.20;99.90
59469;DHT22;45277;52.768;18.262;2022-09-09T06:03:33;14.10;99.90
59469;DHT22;45277;52.768;18.262;2022-09-09T06:05:06;14.10;99.90
59469;DHT22;45277;52.768;18.262;2022-09-09T06:06:42;14.20;99.90
59469;DHT22;45277;52.768;18.262;2022-09-09T06:08:16;14.30;99.90
59469;DHT22;45277;52.768;18.262;2022-09-09T06:09:48;14.40;99.90
59469;DHT22;45277;52.768;18.262;2022-09-09T06:11:25;14.40;99.90
59469;DHT22;45277;52.768;18.262;2022-09-09T06:12:57;14.40;99.90
59469;DHT22;45277;52.768;18.262;2022-09-09T06:14:30;14.40;99.90
59469;DHT22;45277;52.768;18.262;2022-09-09T06:16:13;14.40;99.90
59469;DHT22;45277;52.768;18.262;2022-09-09T06:17:54;14.40;99.90
59469;DHT22;45277;52.768;18.262;2022-09-09T06:19:27;14.40;99.90
59469;DHT22;45277;52.768;18.262;2022-09-09T06:21:08;14.40;99.90
59469;DHT22;45277;52.768;18.262;2022-09-09T06:22:40;14.40;99.90
59469;DHT22;45277;52.768;18.262;2022-09-09T06:24:19;14.30;99.90
59469;DHT22;45277;52.768;18.262;2022-09-09T06:26:00;14.30;99.90
59469;DHT22;45277;52.768;18.262;2022-09-09T06:27:32;14.30;99.90
59469;DHT22;45277;52.768;18.262;2022-09-09T06:29:05;14.30;99.90
59469;DHT22;45277;52.768;18.262;2022-09-09T06:30:39;14.30;99.90
59469;DHT22;45277;52.768;18.262;2022-09-09T06:32:11;14.30;99.90
59469;DHT22;45277;52.768;18.262;2022-09-09T06:33:43;14.30;99.90
59469;DHT22;45277;52.768;18.262;2022-09-09T06:35:15;14.30;99.90
59469;DHT22;45277;52.768;18.262;2022-09-09T06:36:47;14.30;99.90
59469;DHT22;45277;52.768;18.262;2022-09-09T06:38:20;14.40;99.90
59469;DHT22;45277;52.768;18.262;2022-09-09T06:39:52;14.40;99.90
59469;DHT22;45277;52.768;18.262;2022-09-09T06:41:28;14.40;99.90
59469;DHT22;45277;52.768;18.262;2022-09-09T06:43:00;14.40;99.90
59469;DHT22;45277;52.768;18.262;2022-09-09T06:44:33;14.40;99.90
59469;DHT22;45277;52.768;18.262;2022-09-09T06:46:10;14.40;99.90
59469;DHT22;45277;52.768;18.262;2022-09-09T06:47:43;14.40;99.90
59469;DHT22;45277;52.768;18.262;2022-09-09T06:49:14;14.50;99.90
59469;DHT22;45277;52.768;18.262;2022-09-09T06:50:46;14.50;99.90
59469;DHT22;45277;52.768;18.262;2022-09-09T06:52:20;14.50;99.90
59469;DHT22;45277;52.768;18.262;2022-09-09T06:53:54;14.50;99.90
59469;DHT22;45277;52.768;18.262;2022-09-09T06:55:29;14.50;99.90
59469;DHT22;45277;52.768;18.262;2022-09-09T06:57:01;14.50;99.90
59469;DHT22;45277;52.768;18.262;2022-09-09T06:58:39;14.60;99.90
59469;DHT22;45277;52.768;18.262;2022-09-09T07:00:15;14.60;99.90
59469;DHT22;45277;52.768;18.262;2022-09-09T07:01:48;14.70;99.90
59469;DHT22;45277;52.768;18.262;2022-09-09T07:03:24;14.80;99.90
59469;DHT22;45277;52.768;18.262;2022-09-09T07:05:06;14.90;99.90
59469;DHT22;45277;52.768;18.262;2022-09-09T07:06:44;15.00;99.90
59469;DHT22;45277;52.768;18.262;2022-09-09T07:08:16;15.10;99.90
59469;DHT22;45277;52.768;18.262;2022-09-09T07:09:54;15.20;99.90
59469;DHT22;45277;52.768;18.262;2022-09-09T07:11:31;15.30;99.90
59469;DHT22;45277;52.768;18.262;2022-09-09T07:13:05;15.40;99.90
59469;DHT22;45277;52.768;18.262;2022-09-09T07:14:39;15.50;99.90
59469;DHT22;45277;52.768;18.262;2022-09-09T07:16:15;15.60;99.90
59469;DHT22;45277;52.768;18.262;2022-09-09T07:17:47;15.80;99.90
59469;DHT22;45277;52.768;18.262;2022-09-09T07:19:24;15.90;99.90
59469;DHT22;45277;52.768;18.262;2022-09-09T07:20:58;16.00;99.90
59469;DHT22;45277;52.768;18.262;2022-09-09T07:22:33;16.10;99.90
59469;DHT22;45277;52.768;18.262;2022-09-09T07:24:06;16.20;99.90
59469;DHT22;45277;52.768;18.262;2022-09-09T07:25:47;16.20;99.90
59469;DHT22;45277;52.768;18.262;2022-09-09T07:27:24;16.20;99.90
59469;DHT22;45277;52.768;18.262;2022-09-09T07:28:58;16.20;99.90
59469;DHT22;45277;52.768;18.262;2022-09-09T07:30:35;16.40;99.90
59469;DHT22;45277;52.768;18.262;2022-09-09T07:32:09;16.30;99.90
59469;DHT22;45277;52.768;18.262;2022-09-09T07:33:40;16.20;99.90
59469;DHT22;45277;52.768;18.262;2022-09-09T07:35:12;16.30;99.90
59469;DHT22;45277;52.768;18.262;2022-09-09T07:36:43;16.30;99.90
59469;DHT22;45277;52.768;18.262;2022-09-09T07:38:19;16.50;99.90
59469;DHT22;45277;52.768;18.262;2022-09-09T07:39:52;16.60;99.90
59469;DHT22;45277;52.768;18.262;2022-09-09T07:41:31;16.60;99.90
59469;DHT22;45277;52.768;18.262;2022-09-09T07:43:07;16.70;99.90
59469;DHT22;45277;52.768;18.262;2022-09-09T07:44:39;16.70;99.90
59469;DHT22;45277;52.768;18.262;2022-09-09T07:46:13;16.80;99.90
59469;DHT22;45277;52.768;18.262;2022-09-09T07:47:46;16.80;99.90
59469;DHT22;45277;52.768;18.262;2022-09-09T07:49:19;16.80;99.90
59469;DHT22;45277;52.768;18.262;2022-09-09T07:50:50;16.80;99.90
59469;DHT22;45277;52.768;18.262;2022-09-09T07:52:23;16.90;99.90
59469;DHT22;45277;52.768;18.262;2022-09-09T07:54:04;16.90;99.90
59469;DHT22;45277;52.768;18.262;2022-09-09T07:55:38;16.90;99.90
59469;DHT22;45277;52.768;18.262;2022-09-09T07:57:12;17.10;99.90
59469;DHT22;45277;52.768;18.262;2022-09-09T07:58:47;16.90;99.90
59469;DHT22;45277;52.768;18.262;2022-09-09T08:00:23;16.90;99.90
59469;DHT22;45277;52.768;18.262;2022-09-09T08:02:12;16.90;99.90
59469;DHT22;45277;52.768;18.262;2022-09-09T08:03:53;16.90;99.90
59469;DHT22;45277;52.768;18.262;2022-09-09T08:05:40;16.90;99.90
59469;DHT22;45277;52.768;18.262;2022-09-09T08:07:12;16.80;99.90
59469;DHT22;45277;52.768;18.262;2022-09-09T08:08:50;16.90;99.90
59469;DHT22;45277;52.768;18.262;2022-09-09T08:10:23;17.00;99.90
59469;DHT22;45277;52.768;18.262;2022-09-09T08:11:57;17.10;99.90
59469;DHT22;45277;52.768;18.262;2022-09-09T08:13:31;17.40;99.90
59469;DHT22;45277;52.768;18.262;2022-09-09T08:15:02;17.60;99.90
59469;DHT22;45277;52.768;18.262;2022-09-09T08:16:45;17.50;99.90
59469;DHT22;45277;52.768;18.262;2022-09-09T08:18:26;17.60;99.90
59469;DHT22;45277;52.768;18.262;2022-09-09T08:19:58;17.80;99.90
59469;DHT22;45277;52.768;18.262;2022-09-09T08:21:37;17.70;99.90
59469;DHT22;45277;52.768;18.262;2022-09-09T08:23:20;17.70;99.90
59469;DHT22;45277;52.768;18.262;2022-09-09T08:25:00;17.80;99.90
59469;DHT22;45277;52.768;18.262;2022-09-09T08:26:37;17.90;99.90
59469;DHT22;45277;52.768;18.262;2022-09-09T08:28:10;18.10;99.90
59469;DHT22;45277;52.768;18.262;2022-09-09T08:29:43;18.10;99.90
59469;DHT22;45277;52.768;18.262;2022-09-09T08:31:21;17.90;99.90
59469;DHT22;45277;52.768;18.262;2022-09-09T08:32:53;17.90;99.90
59469;DHT22;45277;52.768;18.262;2022-09-09T08:34:29;17.90;99.90
59469;DHT22;45277;52.768;18.262;2022-09-09T08:36:10;17.70;99.90
59469;DHT22;45277;52.768;18.262;2022-09-09T08:37:42;17.40;99.90
59469;DHT22;45277;52.768;18.262;2022-09-09T08:39:20;17.40;99.90
59469;DHT22;45277;52.768;18.262;2022-09-09T08:41:39;17.50;99.90
59469;DHT22;45277;52.768;18.262;2022-09-09T08:42:59;17.60;99.90
59469;DHT22;45277;52.768;18.262;2022-09-09T08:46:49;17.50;99.90
59469;DHT22;45277;52.768;18.262;2022-09-09T08:48:36;17.50;99.90
59469;DHT22;45277;52.768;18.262;2022-09-09T08:50:19;17.40;99.90
59469;DHT22;45277;52.768;18.262;2022-09-09T08:52:00;17.30;99.90
59469;DHT22;45277;52.768;18.262;2022-09-09T08:53:47;17.40;99.90
59469;DHT22;45277;52.768;18.262;2022-09-09T08:56:51;17.30;99.90
59469;DHT22;45277;52.768;18.262;2022-09-09T08:58:33;17.50;99.90
59469;DHT22;45277;52.768;18.262;2022-09-09T09:00:14;17.40;99.90
59469;DHT22;45277;52.768;18.262;2022-09-09T09:02:04;17.50;99.90
59469;DHT22;45277;52.768;18.262;2022-09-09T09:08:26;17.70;99.90
59469;DHT22;45277;52.768;18.262;2022-09-09T09:10:08;18.00;99.90
59469;DHT22;45277;52.768;18.262;2022-09-09T09:11:50;18.00;99.90
59469;DHT22;45277;52.768;18.262;2022-09-09T09:13:26;18.10;99.90
59469;DHT22;45277;52.768;18.262;2022-09-09T09:15:14;18.20;99.90
59469;DHT22;45277;52.768;18.262;2022-09-09T09:18:51;18.00;99.90
59469;DHT22;45277;52.768;18.262;2022-09-09T09:23:09;17.90;99.90
59469;DHT22;45277;52.768;18.262;2022-09-09T09:26:24;18.20;99.90
59469;DHT22;45277;52.768;18.262;2022-09-09T09:28:02;18.30;99.90
59469;DHT22;45277;52.768;18.262;2022-09-09T09:29:39;18.30;99.90
59469;DHT22;45277;52.768;18.262;2022-09-09T09:31:13;18.50;99.90
59469;DHT22;45277;52.768;18.262;2022-09-09T09:33:02;18.60;99.90
59469;DHT22;45277;52.768;18.262;2022-09-09T09:34:38;18.70;99.90
59469;DHT22;45277;52.768;18.262;2022-09-09T09:36:15;19.00;99.90
59469;DHT22;45277;52.768;18.262;2022-09-09T09:37:47;19.00;99.90
59469;DHT22;45277;52.768;18.262;2022-09-09T09:39:31;19.20;99.90
59469;DHT22;45277;52.768;18.262;2022-09-09T09:41:08;19.20;99.90
59469;DHT22;45277;52.768;18.262;2022-09-09T09:42:56;19.50;99.90
59469;DHT22;45277;52.768;18.262;2022-09-09T09:44:32;19.40;99.90
59469;DHT22;45277;52.768;18.262;2022-09-09T09:46:04;19.60;99.90
59469;DHT22;45277;52.768;18.262;2022-09-09T09:47:37;20.00;99.90
59469;DHT22;45277;52.768;18.262;2022-09-09T09:49:15;20.70;99.90
59469;DHT22;45277;52.768;18.262;2022-09-09T09:50:59;21.30;99.90
59469;DHT22;45277;52.768;18.262;2022-09-09T09:52:41;21.80;99.90
59469;DHT22;45277;52.768;18.262;2022-09-09T09:54:23;21.90;99.90
59469;DHT22;45277;52.768;18.262;2022-09-09T09:56:00;22.40;99.90
59469;DHT22;45277;52.768;18.262;2022-09-09T09:57:33;22.70;98.10
59469;DHT22;45277;52.768;18.262;2022-09-09T09:59:24;23.20;85.00
59469;DHT22;45277;52.768;18.262;2022-09-09T10:01:23;23.40;68.20
59469;DHT22;45277;52.768;18.262;2022-09-09T10:03:29;23.20;86.60
59469;DHT22;45277;52.768;18.262;2022-09-09T10:05:18;23.60;97.80
59469;DHT22;45277;52.768;18.262;2022-09-09T10:06:52;23.40;97.60
59469;DHT22;45277;52.768;18.262;2022-09-09T10:08:28;23.10;96.90
59469;DHT22;45277;52.768;18.262;2022-09-09T10:10:00;23.40;91.20
59469;DHT22;45277;52.768;18.262;2022-09-09T10:13:25;23.70;82.10
59469;DHT22;45277;52.768;18.262;2022-09-09T10:18:39;23.10;80.20
59469;DHT22;45277;52.768;18.262;2022-09-09T10:20:40;22.90;94.90
59469;DHT22;45277;52.768;18.262;2022-09-09T10:22:27;22.90;99.00
59469;DHT22;45277;52.768;18.262;2022-09-09T10:26:44;23.00;90.00
59469;DHT22;45277;52.768;18.262;2022-09-09T10:31:56;23.80;56.60
59469;DHT22;45277;52.768;18.262;2022-09-09T10:35:55;22.90;75.90
59469;DHT22;45277;52.768;18.262;2022-09-09T10:38:03;22.50;85.90
59469;DHT22;45277;52.768;18.262;2022-09-09T10:39:38;22.20;92.80
59469;DHT22;45277;52.768;18.262;2022-09-09T10:51:57;22.00;99.90
59469;DHT22;45277;52.768;18.262;2022-09-09T10:54:25;22.20;99.90
59469;DHT22;45277;52.768;18.262;2022-09-09T10:55:56;22.80;99.90
59469;DHT22;45277;52.768;18.262;2022-09-09T10:57:41;23.80;75.10
59469;DHT22;45277;52.768;18.262;2022-09-09T10:59:26;24.90;61.70
59469;DHT22;45277;52.768;18.262;2022-09-09T11:01:06;25.20;47.80
59469;DHT22;45277;52.768;18.262;2022-09-09T11:02:43;25.40;58.70
59469;DHT22;45277;52.768;18.262;2022-09-09T11:04:22;25.80;50.60
59469;DHT22;45277;52.768;18.262;2022-09-09T11:06:18;26.00;46.30
59469;DHT22;45277;52.768;18.262;2022-09-09T11:08:04;25.70;39.90
59469;DHT22;45277;52.768;18.262;2022-09-09T11:09:50;25.60;43.10
59469;DHT22;45277;52.768;18.262;2022-09-09T11:14:32;25.60;46.20
59469;DHT22;45277;52.768;18.262;2022-09-09T11:15:46;25.20;46.10